sensor_id;sensor_type;location;lat;lon;timestamp;P1;durP1;ratioP1;P2;durP2;ratioP2
49131;SDS011;35149;51.196;6.204;2022-08-14T00:02:20;3.67;;;3.45;;
49131;SDS011;35149;51.196;6.204;2022-08-14T00:04:49;3.80;;;3.25;;
49131;SDS011;35149;51.196;6.204;2022-08-14T00:07:19;4.13;;;3.67;;
49131;SDS011;35149;51.196;6.204;2022-08-14T00:09:49;4.00;;;3.70;;
49131;SDS011;35149;51.196;6.204;2022-08-14T00:12:39;3.80;;;3.50;;
49131;SDS011;35149;51.196;6.204;2022-08-14T00:17:50;4.07;;;3.67;;
49131;SDS011;35149;51.196;6.204;2022-08-14T00:20:20;4.97;;;3.78;;
49131;SDS011;35149;51.196;6.204;2022-08-14T00:23:09;4.22;;;3.72;;
49131;SDS011;35149;51.196;6.204;2022-08-14T00:25:49;4.05;;;3.65;;
49131;SDS011;35149;51.196;6.204;2022-08-14T00:28:31;4.10;;;3.80;;
49131;SDS011;35149;51.196;6.204;2022-08-14T00:31:03;3.78;;;3.47;;
49131;SDS011;35149;51.196;6.204;2022-08-14T00:33:33;4.10;;;3.80;;
49131;SDS011;35149;51.196;6.204;2022-08-14T00:36:18;4.00;;;3.70;;
49131;SDS011;35149;51.196;6.204;2022-08-14T00:39:07;4.30;;;4.00;;
49131;SDS011;35149;51.196;6.204;2022-08-14T00:44:07;4.28;;;3.90;;
49131;SDS011;35149;51.196;6.204;2022-08-14T00:46:36;5.10;;;3.75;;
49131;SDS011;35149;51.196;6.204;2022-08-14T00:49:06;4.88;;;4.00;;
49131;SDS011;35149;51.196;6.204;2022-08-14T00:51:40;4.88;;;4.18;;
49131;SDS011;35149;51.196;6.204;2022-08-14T00:54:11;4.30;;;3.95;;
49131;SDS011;35149;51.196;6.204;2022-08-14T00:56:50;4.32;;;3.85;;
49131;SDS011;35149;51.196;6.204;2022-08-14T00:59:26;4.50;;;3.53;;
49131;SDS011;35149;51.196;6.204;2022-08-14T01:01:59;4.30;;;3.90;;
49131;SDS011;35149;51.196;6.204;2022-08-14T01:04:27;4.43;;;4.03;;
49131;SDS011;35149;51.196;6.204;2022-08-14T01:07:19;3.80;;;3.50;;
49131;SDS011;35149;51.196;6.204;2022-08-14T01:09:50;5.50;;;4.03;;
49131;SDS011;35149;51.196;6.204;2022-08-14T01:12:26;5.70;;;3.65;;
49131;SDS011;35149;51.196;6.204;2022-08-14T01:14:57;4.18;;;3.83;;
49131;SDS011;35149;51.196;6.204;2022-08-14T01:17:25;4.32;;;4.00;;
49131;SDS011;35149;51.196;6.204;2022-08-14T01:20:18;4.35;;;3.95;;
49131;SDS011;35149;51.196;6.204;2022-08-14T01:23:10;4.25;;;3.92;;
49131;SDS011;35149;51.196;6.204;2022-08-14T01:25:47;4.85;;;4.40;;
49131;SDS011;35149;51.196;6.204;2022-08-14T01:28:17;6.05;;;3.90;;
49131;SDS011;35149;51.196;6.204;2022-08-14T01:31:14;6.43;;;4.13;;
49131;SDS011;35149;51.196;6.204;2022-08-14T01:33:47;4.57;;;4.18;;
49131;SDS011;35149;51.196;6.204;2022-08-14T01:36:35;4.45;;;4.10;;
49131;SDS011;35149;51.196;6.204;2022-08-14T01:39:06;4.93;;;4.53;;
49131;SDS011;35149;51.196;6.204;2022-08-14T01:41:43;4.20;;;3.90;;
49131;SDS011;35149;51.196;6.204;2022-08-14T01:44:27;4.72;;;3.92;;
49131;SDS011;35149;51.196;6.204;2022-08-14T01:47:01;3.92;;;3.63;;
49131;SDS011;35149;51.196;6.204;2022-08-14T01:49:47;4.35;;;4.05;;
49131;SDS011;35149;51.196;6.204;2022-08-14T01:52:25;4.10;;;3.80;;
49131;SDS011;35149;51.196;6.204;2022-08-14T01:55:15;3.95;;;3.63;;
49131;SDS011;35149;51.196;6.204;2022-08-14T01:57:45;4.05;;;3.42;;
49131;SDS011;35149;51.196;6.204;2022-08-14T02:00:32;4.35;;;4.03;;
49131;SDS011;35149;51.196;6.204;2022-08-14T02:03:06;3.97;;;3.67;;
49131;SDS011;35149;51.196;6.204;2022-08-14T02:05:34;4.10;;;3.78;;
49131;SDS011;35149;51.196;6.204;2022-08-14T02:08:05;4.63;;;4.22;;
49131;SDS011;35149;51.196;6.204;2022-08-14T02:10:36;4.05;;;3.75;;
49131;SDS011;35149;51.196;6.204;2022-08-14T02:13:15;4.28;;;3.92;;
49131;SDS011;35149;51.196;6.204;2022-08-14T02:15:45;4.88;;;4.45;;
49131;SDS011;35149;51.196;6.204;2022-08-14T02:18:15;4.57;;;4.25;;
49131;SDS011;35149;51.196;6.204;2022-08-14T02:20:44;4.03;;;3.72;;
49131;SDS011;35149;51.196;6.204;2022-08-14T02:23:16;5.40;;;3.95;;
49131;SDS011;35149;51.196;6.204;2022-08-14T02:25:58;4.93;;;4.43;;
49131;SDS011;35149;51.196;6.204;2022-08-14T02:28:49;4.22;;;3.92;;
49131;SDS011;35149;51.196;6.204;2022-08-14T02:31:28;4.85;;;4.38;;
49131;SDS011;35149;51.196;6.204;2022-08-14T02:34:16;4.93;;;4.47;;
49131;SDS011;35149;51.196;6.204;2022-08-14T02:36:53;4.60;;;4.10;;
49131;SDS011;35149;51.196;6.204;2022-08-14T02:39:34;4.90;;;4.40;;
49131;SDS011;35149;51.196;6.204;2022-08-14T02:42:07;4.70;;;4.30;;
49131;SDS011;35149;51.196;6.204;2022-08-14T02:44:41;5.30;;;4.60;;
49131;SDS011;35149;51.196;6.204;2022-08-14T02:47:15;5.05;;;4.65;;
49131;SDS011;35149;51.196;6.204;2022-08-14T02:49:48;5.35;;;4.65;;
49131;SDS011;35149;51.196;6.204;2022-08-14T02:52:22;4.78;;;4.38;;
49131;SDS011;35149;51.196;6.204;2022-08-14T02:55:11;6.10;;;4.80;;
49131;SDS011;35149;51.196;6.204;2022-08-14T02:57:46;4.93;;;4.43;;
49131;SDS011;35149;51.196;6.204;2022-08-14T03:00:28;4.20;;;3.80;;
49131;SDS011;35149;51.196;6.204;2022-08-14T03:02:57;4.65;;;4.25;;
49131;SDS011;35149;51.196;6.204;2022-08-14T03:05:27;4.85;;;4.32;;
49131;SDS011;35149;51.196;6.204;2022-08-14T03:08:06;4.68;;;4.28;;
49131;SDS011;35149;51.196;6.204;2022-08-14T03:10:41;5.32;;;4.82;;
49131;SDS011;35149;51.196;6.204;2022-08-14T03:13:15;4.90;;;4.47;;
49131;SDS011;35149;51.196;6.204;2022-08-14T03:15:51;5.20;;;4.70;;
49131;SDS011;35149;51.196;6.204;2022-08-14T03:18:26;5.70;;;5.20;;
49131;SDS011;35149;51.196;6.204;2022-08-14T03:21:01;5.57;;;5.00;;
49131;SDS011;35149;51.196;6.204;2022-08-14T03:23:33;4.93;;;4.50;;
49131;SDS011;35149;51.196;6.204;2022-08-14T03:26:06;10.10;;;4.75;;
49131;SDS011;35149;51.196;6.204;2022-08-14T03:28:44;5.38;;;4.90;;
49131;SDS011;35149;51.196;6.204;2022-08-14T03:31:13;5.43;;;5.00;;
49131;SDS011;35149;51.196;6.204;2022-08-14T03:33:51;5.22;;;4.82;;
49131;SDS011;35149;51.196;6.204;2022-08-14T03:36:19;5.60;;;4.93;;
49131;SDS011;35149;51.196;6.204;2022-08-14T03:39:08;6.50;;;5.78;;
49131;SDS011;35149;51.196;6.204;2022-08-14T03:41:53;5.45;;;4.93;;
49131;SDS011;35149;51.196;6.204;2022-08-14T03:44:25;6.30;;;5.20;;
49131;SDS011;35149;51.196;6.204;2022-08-14T03:47:12;4.78;;;4.32;;
49131;SDS011;35149;51.196;6.204;2022-08-14T03:49:41;5.68;;;5.13;;
49131;SDS011;35149;51.196;6.204;2022-08-14T03:52:15;8.77;;;6.53;;
49131;SDS011;35149;51.196;6.204;2022-08-14T03:55:06;5.80;;;5.30;;
49131;SDS011;35149;51.196;6.204;2022-08-14T03:57:37;5.90;;;5.38;;
49131;SDS011;35149;51.196;6.204;2022-08-14T04:00:07;5.82;;;5.22;;
49131;SDS011;35149;51.196;6.204;2022-08-14T04:02:56;6.00;;;5.40;;
49131;SDS011;35149;51.196;6.204;2022-08-14T04:05:25;6.57;;;5.63;;
49131;SDS011;35149;51.196;6.204;2022-08-14T04:07:53;5.65;;;5.22;;
49131;SDS011;35149;51.196;6.204;2022-08-14T04:10:43;5.22;;;4.45;;
49131;SDS011;35149;51.196;6.204;2022-08-14T04:13:14;7.33;;;6.40;;
49131;SDS011;35149;51.196;6.204;2022-08-14T04:15:45;5.85;;;5.18;;
49131;SDS011;35149;51.196;6.204;2022-08-14T04:18:30;5.45;;;5.05;;
49131;SDS011;35149;51.196;6.204;2022-08-14T04:20:59;6.10;;;5.60;;
49131;SDS011;35149;51.196;6.204;2022-08-14T04:23:31;6.47;;;5.70;;
49131;SDS011;35149;51.196;6.204;2022-08-14T04:25:59;6.38;;;5.78;;
49131;SDS011;35149;51.196;6.204;2022-08-14T04:28:28;5.70;;;5.15;;
49131;SDS011;35149;51.196;6.204;2022-08-14T04:31:15;7.55;;;5.70;;
49131;SDS011;35149;51.196;6.204;2022-08-14T04:34:09;6.07;;;5.47;;
49131;SDS011;35149;51.196;6.204;2022-08-14T04:36:49;6.47;;;5.72;;
49131;SDS011;35149;51.196;6.204;2022-08-14T04:39:38;5.97;;;5.15;;
49131;SDS011;35149;51.196;6.204;2022-08-14T04:42:24;7.15;;;5.88;;
49131;SDS011;35149;51.196;6.204;2022-08-14T04:45:18;5.95;;;5.40;;
49131;SDS011;35149;51.196;6.204;2022-08-14T04:47:50;6.07;;;5.47;;
49131;SDS011;35149;51.196;6.204;2022-08-14T04:50:39;6.55;;;5.95;;
49131;SDS011;35149;51.196;6.204;2022-08-14T04:53:14;6.03;;;5.45;;
49131;SDS011;35149;51.196;6.204;2022-08-14T04:55:48;6.90;;;5.40;;
49131;SDS011;35149;51.196;6.204;2022-08-14T04:58:18;7.30;;;6.22;;
49131;SDS011;35149;51.196;6.204;2022-08-14T05:03:27;5.78;;;5.18;;
49131;SDS011;35149;51.196;6.204;2022-08-14T05:05:57;6.22;;;5.68;;
49131;SDS011;35149;51.196;6.204;2022-08-14T05:08:26;7.22;;;5.75;;
49131;SDS011;35149;51.196;6.204;2022-08-14T05:11:15;6.30;;;5.70;;
49131;SDS011;35149;51.196;6.204;2022-08-14T05:13:45;6.75;;;5.15;;
49131;SDS011;35149;51.196;6.204;2022-08-14T05:16:32;5.63;;;5.10;;
49131;SDS011;35149;51.196;6.204;2022-08-14T05:18:59;7.63;;;6.63;;
49131;SDS011;35149;51.196;6.204;2022-08-14T05:21:46;6.70;;;6.07;;
49131;SDS011;35149;51.196;6.204;2022-08-14T05:24:33;6.32;;;5.82;;
49131;SDS011;35149;51.196;6.204;2022-08-14T05:27:00;6.55;;;5.93;;
49131;SDS011;35149;51.196;6.204;2022-08-14T05:29:28;7.22;;;6.25;;
49131;SDS011;35149;51.196;6.204;2022-08-14T05:31:57;7.30;;;6.03;;
49131;SDS011;35149;51.196;6.204;2022-08-14T05:34:27;6.60;;;6.00;;
49131;SDS011;35149;51.196;6.204;2022-08-14T05:36:57;5.82;;;5.32;;
49131;SDS011;35149;51.196;6.204;2022-08-14T05:39:32;6.70;;;6.10;;
49131;SDS011;35149;51.196;6.204;2022-08-14T05:41:59;8.23;;;5.88;;
49131;SDS011;35149;51.196;6.204;2022-08-14T05:47:24;5.93;;;5.32;;
49131;SDS011;35149;51.196;6.204;2022-08-14T05:49:59;9.43;;;7.45;;
49131;SDS011;35149;51.196;6.204;2022-08-14T05:52:27;6.43;;;5.75;;
49131;SDS011;35149;51.196;6.204;2022-08-14T05:55:08;6.32;;;5.72;;
49131;SDS011;35149;51.196;6.204;2022-08-14T05:57:45;6.75;;;6.15;;
49131;SDS011;35149;51.196;6.204;2022-08-14T06:00:17;6.57;;;5.88;;
49131;SDS011;35149;51.196;6.204;2022-08-14T06:02:56;7.80;;;6.82;;
49131;SDS011;35149;51.196;6.204;2022-08-14T06:05:32;7.88;;;7.07;;
49131;SDS011;35149;51.196;6.204;2022-08-14T06:08:00;7.80;;;7.10;;
49131;SDS011;35149;51.196;6.204;2022-08-14T06:10:34;7.05;;;6.05;;
49131;SDS011;35149;51.196;6.204;2022-08-14T06:13:00;8.82;;;7.15;;
49131;SDS011;35149;51.196;6.204;2022-08-14T06:15:28;6.90;;;6.20;;
49131;SDS011;35149;51.196;6.204;2022-08-14T06:17:56;7.80;;;7.10;;
49131;SDS011;35149;51.196;6.204;2022-08-14T06:20:25;8.20;;;7.43;;
49131;SDS011;35149;51.196;6.204;2022-08-14T06:22:53;8.00;;;7.10;;
49131;SDS011;35149;51.196;6.204;2022-08-14T06:25:22;7.95;;;6.38;;
49131;SDS011;35149;51.196;6.204;2022-08-14T06:27:50;11.13;;;6.82;;
49131;SDS011;35149;51.196;6.204;2022-08-14T06:30:19;9.15;;;7.20;;
49131;SDS011;35149;51.196;6.204;2022-08-14T06:32:48;7.53;;;6.82;;
49131;SDS011;35149;51.196;6.204;2022-08-14T06:35:18;6.88;;;6.28;;
49131;SDS011;35149;51.196;6.204;2022-08-14T06:40:18;6.75;;;6.15;;
49131;SDS011;35149;51.196;6.204;2022-08-14T06:42:58;6.90;;;6.35;;
49131;SDS011;35149;51.196;6.204;2022-08-14T06:45:35;10.05;;;6.90;;
49131;SDS011;35149;51.196;6.204;2022-08-14T06:48:14;7.93;;;7.22;;
49131;SDS011;35149;51.196;6.204;2022-08-14T06:50:46;7.72;;;6.85;;
49131;SDS011;35149;51.196;6.204;2022-08-14T06:53:14;7.13;;;6.53;;
49131;SDS011;35149;51.196;6.204;2022-08-14T06:55:42;6.85;;;6.15;;
49131;SDS011;35149;51.196;6.204;2022-08-14T06:58:23;8.57;;;6.63;;
49131;SDS011;35149;51.196;6.204;2022-08-14T07:00:56;6.78;;;6.18;;
49131;SDS011;35149;51.196;6.204;2022-08-14T07:03:50;6.82;;;6.18;;
49131;SDS011;35149;51.196;6.204;2022-08-14T07:06:48;7.13;;;6.43;;
49131;SDS011;35149;51.196;6.204;2022-08-14T07:09:16;7.25;;;6.43;;
49131;SDS011;35149;51.196;6.204;2022-08-14T07:11:49;9.20;;;6.90;;
49131;SDS011;35149;51.196;6.204;2022-08-14T07:14:16;7.05;;;6.38;;
49131;SDS011;35149;51.196;6.204;2022-08-14T07:16:43;7.45;;;6.82;;
49131;SDS011;35149;51.196;6.204;2022-08-14T07:19:10;6.88;;;6.32;;
49131;SDS011;35149;51.196;6.204;2022-08-14T07:21:37;6.82;;;5.72;;
49131;SDS011;35149;51.196;6.204;2022-08-14T07:24:04;6.63;;;5.78;;
49131;SDS011;35149;51.196;6.204;2022-08-14T07:26:35;6.15;;;5.65;;
49131;SDS011;35149;51.196;6.204;2022-08-14T07:29:06;7.72;;;5.72;;
49131;SDS011;35149;51.196;6.204;2022-08-14T07:31:33;6.93;;;6.15;;
49131;SDS011;35149;51.196;6.204;2022-08-14T07:34:01;6.10;;;5.47;;
49131;SDS011;35149;51.196;6.204;2022-08-14T07:36:29;6.28;;;5.78;;
49131;SDS011;35149;51.196;6.204;2022-08-14T07:38:57;6.43;;;5.90;;
49131;SDS011;35149;51.196;6.204;2022-08-14T07:41:38;5.70;;;5.20;;
49131;SDS011;35149;51.196;6.204;2022-08-14T07:44:07;5.97;;;5.47;;
49131;SDS011;35149;51.196;6.204;2022-08-14T07:46:56;8.10;;;5.75;;
49131;SDS011;35149;51.196;6.204;2022-08-14T07:49:23;8.15;;;5.82;;
49131;SDS011;35149;51.196;6.204;2022-08-14T07:51:51;6.00;;;5.40;;
49131;SDS011;35149;51.196;6.204;2022-08-14T07:54:18;5.95;;;5.45;;
49131;SDS011;35149;51.196;6.204;2022-08-14T07:56:55;6.13;;;5.53;;
49131;SDS011;35149;51.196;6.204;2022-08-14T07:59:25;5.78;;;5.10;;
49131;SDS011;35149;51.196;6.204;2022-08-14T08:02:09;5.95;;;5.20;;
49131;SDS011;35149;51.196;6.204;2022-08-14T08:04:45;6.07;;;5.53;;
49131;SDS011;35149;51.196;6.204;2022-08-14T08:07:14;5.82;;;5.32;;
49131;SDS011;35149;51.196;6.204;2022-08-14T08:09:42;6.25;;;5.75;;
49131;SDS011;35149;51.196;6.204;2022-08-14T08:12:19;7.60;;;6.10;;
49131;SDS011;35149;51.196;6.204;2022-08-14T08:14:53;6.07;;;5.53;;
49131;SDS011;35149;51.196;6.204;2022-08-14T08:17:34;7.10;;;6.15;;
49131;SDS011;35149;51.196;6.204;2022-08-14T08:20:09;6.50;;;5.70;;
49131;SDS011;35149;51.196;6.204;2022-08-14T08:22:46;5.95;;;5.47;;
49131;SDS011;35149;51.196;6.204;2022-08-14T08:25:22;6.28;;;5.65;;
49131;SDS011;35149;51.196;6.204;2022-08-14T08:28:32;6.45;;;5.85;;
49131;SDS011;35149;51.196;6.204;2022-08-14T08:31:00;6.45;;;5.85;;
49131;SDS011;35149;51.196;6.204;2022-08-14T08:33:30;8.23;;;5.72;;
49131;SDS011;35149;51.196;6.204;2022-08-14T08:36:04;7.43;;;5.90;;
49131;SDS011;35149;51.196;6.204;2022-08-14T08:38:33;6.18;;;5.68;;
49131;SDS011;35149;51.196;6.204;2022-08-14T08:41:21;6.55;;;5.85;;
49131;SDS011;35149;51.196;6.204;2022-08-14T08:43:47;7.70;;;6.40;;
49131;SDS011;35149;51.196;6.204;2022-08-14T08:46:18;6.30;;;5.65;;
49131;SDS011;35149;51.196;6.204;2022-08-14T08:48:49;9.95;;;6.50;;
49131;SDS011;35149;51.196;6.204;2022-08-14T08:51:32;5.47;;;4.97;;
49131;SDS011;35149;51.196;6.204;2022-08-14T08:56:46;6.72;;;5.53;;
49131;SDS011;35149;51.196;6.204;2022-08-14T08:59:23;7.20;;;6.35;;
49131;SDS011;35149;51.196;6.204;2022-08-14T09:02:03;5.25;;;4.85;;
49131;SDS011;35149;51.196;6.204;2022-08-14T09:04:36;5.82;;;5.32;;
49131;SDS011;35149;51.196;6.204;2022-08-14T09:07:24;5.72;;;5.15;;
49131;SDS011;35149;51.196;6.204;2022-08-14T09:09:52;5.97;;;5.47;;
49131;SDS011;35149;51.196;6.204;2022-08-14T09:12:28;6.40;;;5.90;;
49131;SDS011;35149;51.196;6.204;2022-08-14T09:15:03;5.10;;;4.70;;
49131;SDS011;35149;51.196;6.204;2022-08-14T09:17:37;5.47;;;4.97;;
49131;SDS011;35149;51.196;6.204;2022-08-14T09:20:06;5.85;;;5.38;;
49131;SDS011;35149;51.196;6.204;2022-08-14T09:22:38;6.18;;;4.75;;
49131;SDS011;35149;51.196;6.204;2022-08-14T09:25:14;5.63;;;5.03;;
49131;SDS011;35149;51.196;6.204;2022-08-14T09:27:45;5.65;;;5.22;;
49131;SDS011;35149;51.196;6.204;2022-08-14T09:30:12;5.50;;;5.00;;
49131;SDS011;35149;51.196;6.204;2022-08-14T09:35:56;7.22;;;5.63;;
49131;SDS011;35149;51.196;6.204;2022-08-14T09:38:50;5.07;;;4.70;;
49131;SDS011;35149;51.196;6.204;2022-08-14T09:41:33;5.78;;;5.20;;
49131;SDS011;35149;51.196;6.204;2022-08-14T09:53:10;4.97;;;4.53;;
49131;SDS011;35149;51.196;6.204;2022-08-14T09:55:43;5.38;;;4.88;;
49131;SDS011;35149;51.196;6.204;2022-08-14T09:58:33;5.30;;;4.80;;
49131;SDS011;35149;51.196;6.204;2022-08-14T10:01:17;5.32;;;4.47;;
49131;SDS011;35149;51.196;6.204;2022-08-14T10:03:49;5.65;;;5.10;;
49131;SDS011;35149;51.196;6.204;2022-08-14T10:06:19;5.30;;;4.90;;
49131;SDS011;35149;51.196;6.204;2022-08-14T10:11:33;6.93;;;4.95;;
49131;SDS011;35149;51.196;6.204;2022-08-14T10:14:12;5.00;;;4.60;;
49131;SDS011;35149;51.196;6.204;2022-08-14T10:16:55;5.00;;;4.60;;
49131;SDS011;35149;51.196;6.204;2022-08-14T10:19:25;4.90;;;4.50;;
49131;SDS011;35149;51.196;6.204;2022-08-14T10:22:04;5.57;;;5.18;;
49131;SDS011;35149;51.196;6.204;2022-08-14T10:24:56;5.07;;;3.95;;
49131;SDS011;35149;51.196;6.204;2022-08-14T10:27:26;4.88;;;4.47;;
49131;SDS011;35149;51.196;6.204;2022-08-14T10:29:55;5.25;;;4.82;;
49131;SDS011;35149;51.196;6.204;2022-08-14T10:32:27;5.05;;;4.68;;
49131;SDS011;35149;51.196;6.204;2022-08-14T10:35:15;5.53;;;4.65;;
49131;SDS011;35149;51.196;6.204;2022-08-14T10:37:44;5.10;;;4.70;;
49131;SDS011;35149;51.196;6.204;2022-08-14T10:40:16;5.07;;;4.57;;
49131;SDS011;35149;51.196;6.204;2022-08-14T10:43:14;4.80;;;4.25;;
49131;SDS011;35149;51.196;6.204;2022-08-14T10:45:53;4.85;;;4.55;;
49131;SDS011;35149;51.196;6.204;2022-08-14T10:48:55;4.90;;;4.50;;
49131;SDS011;35149;51.196;6.204;2022-08-14T10:51:26;5.68;;;4.80;;
49131;SDS011;35149;51.196;6.204;2022-08-14T10:56:29;4.60;;;4.20;;
49131;SDS011;35149;51.196;6.204;2022-08-14T10:59:04;4.68;;;4.32;;
49131;SDS011;35149;51.196;6.204;2022-08-14T11:01:34;4.20;;;3.90;;
49131;SDS011;35149;51.196;6.204;2022-08-14T11:04:18;4.38;;;3.97;;
49131;SDS011;35149;51.196;6.204;2022-08-14T11:06:54;4.63;;;4.22;;
49131;SDS011;35149;51.196;6.204;2022-08-14T11:09:21;5.47;;;4.18;;
49131;SDS011;35149;51.196;6.204;2022-08-14T11:11:55;4.43;;;4.03;;
49131;SDS011;35149;51.196;6.204;2022-08-14T11:14:49;3.80;;;3.60;;
49131;SDS011;35149;51.196;6.204;2022-08-14T11:17:29;4.72;;;4.40;;
49131;SDS011;35149;51.196;6.204;2022-08-14T11:19:57;4.50;;;4.20;;
49131;SDS011;35149;51.196;6.204;2022-08-14T11:22:26;4.40;;;4.00;;
49131;SDS011;35149;51.196;6.204;2022-08-14T11:25:16;3.75;;;3.33;;
49131;SDS011;35149;51.196;6.204;2022-08-14T11:27:44;3.88;;;3.60;;
49131;SDS011;35149;51.196;6.204;2022-08-14T11:30:15;3.97;;;3.58;;
49131;SDS011;35149;51.196;6.204;2022-08-14T11:33:05;3.85;;;3.53;;
49131;SDS011;35149;51.196;6.204;2022-08-14T11:35:34;3.63;;;3.42;;
49131;SDS011;35149;51.196;6.204;2022-08-14T11:38:12;3.75;;;3.47;;
49131;SDS011;35149;51.196;6.204;2022-08-14T11:40:43;4.47;;;4.18;;
49131;SDS011;35149;51.196;6.204;2022-08-14T11:43:12;3.42;;;3.20;;
49131;SDS011;35149;51.196;6.204;2022-08-14T11:45:43;3.80;;;3.58;;
49131;SDS011;35149;51.196;6.204;2022-08-14T11:48:20;3.63;;;3.42;;
49131;SDS011;35149;51.196;6.204;2022-08-14T11:51:15;3.30;;;3.10;;
49131;SDS011;35149;51.196;6.204;2022-08-14T11:54:03;4.38;;;3.83;;
49131;SDS011;35149;51.196;6.204;2022-08-14T11:56:37;3.80;;;3.53;;
49131;SDS011;35149;51.196;6.204;2022-08-14T11:59:07;3.40;;;3.20;;
49131;SDS011;35149;51.196;6.204;2022-08-14T12:01:40;4.18;;;3.22;;
49131;SDS011;35149;51.196;6.204;2022-08-14T12:04:12;3.58;;;3.33;;
49131;SDS011;35149;51.196;6.204;2022-08-14T12:06:58;5.53;;;3.40;;
49131;SDS011;35149;51.196;6.204;2022-08-14T12:09:27;3.30;;;3.10;;
49131;SDS011;35149;51.196;6.204;2022-08-14T12:11:55;4.05;;;3.10;;
49131;SDS011;35149;51.196;6.204;2022-08-14T12:14:23;3.20;;;3.00;;
49131;SDS011;35149;51.196;6.204;2022-08-14T12:17:04;3.50;;;3.30;;
49131;SDS011;35149;51.196;6.204;2022-08-14T12:19:44;3.50;;;3.30;;
49131;SDS011;35149;51.196;6.204;2022-08-14T12:22:31;4.15;;;3.85;;
49131;SDS011;35149;51.196;6.204;2022-08-14T12:25:09;3.83;;;3.53;;
49131;SDS011;35149;51.196;6.204;2022-08-14T12:27:47;3.97;;;3.55;;
49131;SDS011;35149;51.196;6.204;2022-08-14T12:36:03;3.38;;;3.15;;
49131;SDS011;35149;51.196;6.204;2022-08-14T12:38:37;3.22;;;2.95;;
49131;SDS011;35149;51.196;6.204;2022-08-14T12:41:13;3.30;;;2.83;;
49131;SDS011;35149;51.196;6.204;2022-08-14T12:43:53;3.42;;;3.22;;
49131;SDS011;35149;51.196;6.204;2022-08-14T12:48:59;3.17;;;2.90;;
49131;SDS011;35149;51.196;6.204;2022-08-14T12:51:29;4.50;;;3.15;;
49131;SDS011;35149;51.196;6.204;2022-08-14T12:54:15;3.50;;;3.30;;
49131;SDS011;35149;51.196;6.204;2022-08-14T12:57:01;3.50;;;3.20;;
49131;SDS011;35149;51.196;6.204;2022-08-14T12:59:34;3.83;;;3.05;;
49131;SDS011;35149;51.196;6.204;2022-08-14T13:02:09;3.35;;;3.10;;
49131;SDS011;35149;51.196;6.204;2022-08-14T13:04:54;3.70;;;3.45;;
49131;SDS011;35149;51.196;6.204;2022-08-14T13:07:26;2.92;;;2.72;;
49131;SDS011;35149;51.196;6.204;2022-08-14T13:09:58;3.30;;;3.10;;
49131;SDS011;35149;51.196;6.204;2022-08-14T13:12:46;3.47;;;3.28;;
49131;SDS011;35149;51.196;6.204;2022-08-14T13:15:35;3.72;;;3.30;;
49131;SDS011;35149;51.196;6.204;2022-08-14T13:18:07;3.47;;;3.28;;
49131;SDS011;35149;51.196;6.204;2022-08-14T13:20:42;3.20;;;3.00;;
49131;SDS011;35149;51.196;6.204;2022-08-14T13:23:25;3.33;;;3.03;;
49131;SDS011;35149;51.196;6.204;2022-08-14T13:25:57;3.53;;;3.22;;
49131;SDS011;35149;51.196;6.204;2022-08-14T13:28:24;3.47;;;3.25;;
49131;SDS011;35149;51.196;6.204;2022-08-14T13:31:00;3.33;;;2.70;;
49131;SDS011;35149;51.196;6.204;2022-08-14T13:33:39;3.00;;;2.80;;
49131;SDS011;35149;51.196;6.204;2022-08-14T13:36:09;3.58;;;3.38;;
49131;SDS011;35149;51.196;6.204;2022-08-14T13:38:56;4.80;;;3.25;;
49131;SDS011;35149;51.196;6.204;2022-08-14T13:41:28;3.10;;;2.90;;
49131;SDS011;35149;51.196;6.204;2022-08-14T13:44:02;3.10;;;2.90;;
49131;SDS011;35149;51.196;6.204;2022-08-14T13:46:29;2.80;;;2.60;;
49131;SDS011;35149;51.196;6.204;2022-08-14T13:48:59;6.22;;;2.85;;
49131;SDS011;35149;51.196;6.204;2022-08-14T13:51:27;3.08;;;2.30;;
49131;SDS011;35149;51.196;6.204;2022-08-14T13:53:59;2.63;;;2.42;;
49131;SDS011;35149;51.196;6.204;2022-08-14T13:56:38;2.75;;;2.55;;
49131;SDS011;35149;51.196;6.204;2022-08-14T13:59:12;2.70;;;2.50;;
49131;SDS011;35149;51.196;6.204;2022-08-14T14:01:45;2.53;;;2.42;;
49131;SDS011;35149;51.196;6.204;2022-08-14T14:04:17;2.10;;;2.00;;
49131;SDS011;35149;51.196;6.204;2022-08-14T14:06:48;2.47;;;2.38;;
49131;SDS011;35149;51.196;6.204;2022-08-14T14:09:26;2.50;;;2.03;;
49131;SDS011;35149;51.196;6.204;2022-08-14T14:12:05;2.22;;;2.10;;
49131;SDS011;35149;51.196;6.204;2022-08-14T14:14:54;2.45;;;2.05;;
49131;SDS011;35149;51.196;6.204;2022-08-14T14:17:30;2.65;;;2.40;;
49131;SDS011;35149;51.196;6.204;2022-08-14T14:19:57;2.33;;;2.13;;
49131;SDS011;35149;51.196;6.204;2022-08-14T14:22:25;1.75;;;1.65;;
49131;SDS011;35149;51.196;6.204;2022-08-14T14:25:13;2.45;;;2.35;;
49131;SDS011;35149;51.196;6.204;2022-08-14T14:27:47;2.20;;;2.10;;
49131;SDS011;35149;51.196;6.204;2022-08-14T14:30:19;2.03;;;1.92;;
49131;SDS011;35149;51.196;6.204;2022-08-14T14:33:07;2.17;;;1.90;;
49131;SDS011;35149;51.196;6.204;2022-08-14T14:35:56;2.97;;;2.67;;
49131;SDS011;35149;51.196;6.204;2022-08-14T14:38:25;2.00;;;1.90;;
49131;SDS011;35149;51.196;6.204;2022-08-14T14:40:58;2.90;;;2.13;;
49131;SDS011;35149;51.196;6.204;2022-08-14T14:43:26;2.97;;;1.98;;
49131;SDS011;35149;51.196;6.204;2022-08-14T14:45:54;2.70;;;2.53;;
49131;SDS011;35149;51.196;6.204;2022-08-14T14:48:23;6.18;;;2.20;;
49131;SDS011;35149;51.196;6.204;2022-08-14T14:50:54;2.55;;;2.25;;
49131;SDS011;35149;51.196;6.204;2022-08-14T14:53:24;2.63;;;2.10;;
49131;SDS011;35149;51.196;6.204;2022-08-14T14:55:56;3.08;;;2.15;;
49131;SDS011;35149;51.196;6.204;2022-08-14T14:58:43;2.63;;;2.42;;
49131;SDS011;35149;51.196;6.204;2022-08-14T15:01:11;2.22;;;2.13;;
49131;SDS011;35149;51.196;6.204;2022-08-14T15:03:40;2.63;;;2.53;;
49131;SDS011;35149;51.196;6.204;2022-08-14T15:06:11;2.40;;;2.20;;
49131;SDS011;35149;51.196;6.204;2022-08-14T15:08:42;2.40;;;2.30;;
49131;SDS011;35149;51.196;6.204;2022-08-14T15:11:24;2.85;;;2.47;;
49131;SDS011;35149;51.196;6.204;2022-08-14T15:13:57;2.58;;;2.40;;
49131;SDS011;35149;51.196;6.204;2022-08-14T15:16:25;2.60;;;2.35;;
49131;SDS011;35149;51.196;6.204;2022-08-14T15:18:53;2.63;;;2.50;;
49131;SDS011;35149;51.196;6.204;2022-08-14T15:21:19;3.90;;;1.83;;
49131;SDS011;35149;51.196;6.204;2022-08-14T15:23:48;1.83;;;1.73;;
49131;SDS011;35149;51.196;6.204;2022-08-14T15:26:16;2.47;;;2.30;;
49131;SDS011;35149;51.196;6.204;2022-08-14T15:28:57;2.95;;;2.20;;
49131;SDS011;35149;51.196;6.204;2022-08-14T15:31:32;2.42;;;2.22;;
49131;SDS011;35149;51.196;6.204;2022-08-14T15:34:02;2.63;;;2.50;;
49131;SDS011;35149;51.196;6.204;2022-08-14T15:37:00;2.25;;;2.15;;
49131;SDS011;35149;51.196;6.204;2022-08-14T15:39:28;2.35;;;2.25;;
49131;SDS011;35149;51.196;6.204;2022-08-14T15:42:01;2.47;;;2.33;;
49131;SDS011;35149;51.196;6.204;2022-08-14T15:44:42;2.30;;;2.20;;
49131;SDS011;35149;51.196;6.204;2022-08-14T15:47:27;2.63;;;2.42;;
49131;SDS011;35149;51.196;6.204;2022-08-14T15:49:57;2.85;;;2.65;;
49131;SDS011;35149;51.196;6.204;2022-08-14T15:52:27;5.15;;;2.83;;
49131;SDS011;35149;51.196;6.204;2022-08-14T15:55:00;2.63;;;2.53;;
49131;SDS011;35149;51.196;6.204;2022-08-14T15:57:35;3.08;;;2.88;;
49131;SDS011;35149;51.196;6.204;2022-08-14T16:00:06;3.10;;;2.90;;
49131;SDS011;35149;51.196;6.204;2022-08-14T16:03:09;3.83;;;2.47;;
49131;SDS011;35149;51.196;6.204;2022-08-14T16:05:39;2.42;;;2.33;;
49131;SDS011;35149;51.196;6.204;2022-08-14T16:08:07;2.88;;;2.67;;
49131;SDS011;35149;51.196;6.204;2022-08-14T16:10:55;2.42;;;2.33;;
49131;SDS011;35149;51.196;6.204;2022-08-14T16:13:27;2.40;;;2.30;;
49131;SDS011;35149;51.196;6.204;2022-08-14T16:16:08;3.17;;;2.97;;
49131;SDS011;35149;51.196;6.204;2022-08-14T16:18:57;3.92;;;3.28;;
49131;SDS011;35149;51.196;6.204;2022-08-14T16:21:25;3.20;;;3.00;;